Fountain, Minnesota
Current Conditions -  °F | °C
As of 2:35 AM on Friday 21 Nov 2014 (Local Time) from KFKA Reporting Station
Clear Clear  
Wind Chill: -7°   Ceiling: Unl
Heat Index:   Visibility: 10mi
Dew Point: -1°   Wind: 5mph
Humidity: 87%   Direction: 210°SSW
Pressure: 30.29"   Gusts: NA
Location:  43.74°N, 92.14°W
Report Text: KFKA 210835Z AUTO 21004KT 10SM CLR M16/M18 A3029 RMK AO2 T11651182
Loading
Personal Weather Stations






























Interactive Weather Map New forecast layout! Learn more

10-Day Weather Forecast

Advertisements
Track Severe Weather on mobile